createdAt,value
2022-08-11T00:02:28.995Z,24.32
2022-08-11T00:04:58.885Z,24.33
2022-08-11T00:07:28.192Z,24.27
2022-08-11T00:09:58.240Z,24.26
2022-08-11T00:12:27.851Z,24.21
2022-08-11T00:15:00.861Z,24.22
2022-08-11T00:17:31.964Z,24.23
2022-08-11T00:20:12.136Z,24.19
2022-08-11T00:22:46.619Z,24.19
2022-08-11T00:25:18.758Z,24.21
2022-08-11T00:27:48.602Z,24.27
2022-08-11T00:30:17.873Z,24.28
2022-08-11T00:32:53.740Z,24.29
2022-08-11T00:35:51.763Z,24.29
2022-08-11T00:38:16.487Z,24.29
2022-08-11T00:40:54.836Z,24.26
2022-08-11T00:43:29.456Z,24.26
2022-08-11T00:46:13.781Z,24.18
2022-08-11T00:48:50.422Z,24.18
2022-08-11T00:51:25.936Z,24.08
2022-08-11T00:54:02.570Z,24.07
2022-08-11T00:57:36.049Z,24.05
2022-08-11T01:00:13.351Z,24.02
2022-08-11T01:03:09.038Z,23.97
2022-08-11T01:06:05.250Z,23.89
2022-08-11T01:09:10.010Z,23.98
2022-08-11T01:12:32.616Z,23.95
2022-08-11T01:15:35.132Z,23.86
2022-08-11T01:18:45.984Z,23.89
2022-08-11T01:21:51.887Z,23.94
2022-08-11T01:24:58.667Z,23.90
2022-08-11T01:28:05.933Z,23.84
2022-08-11T01:31:19.965Z,23.73
2022-08-11T01:34:31.126Z,23.81
2022-08-11T01:37:13.150Z,23.73
2022-08-11T01:40:37.850Z,23.82
2022-08-11T01:43:37.719Z,23.76
2022-08-11T01:46:09.876Z,23.63
2022-08-11T01:48:45.060Z,23.56
2022-08-11T01:51:21.324Z,23.48
2022-08-11T01:53:57.596Z,23.53
2022-08-11T01:56:51.170Z,23.61
2022-08-11T01:59:22.596Z,23.64
2022-08-11T02:02:46.009Z,23.57
2022-08-11T02:05:45.030Z,23.60
2022-08-11T02:08:33.542Z,23.60
2022-08-11T02:11:35.734Z,23.58
2022-08-11T02:14:20.741Z,23.61
2022-08-11T02:17:11.386Z,23.60
2022-08-11T02:20:05.944Z,23.57
2022-08-11T02:23:10.841Z,23.66
2022-08-11T02:25:43.893Z,23.63
2022-08-11T02:28:20.886Z,23.62
2022-08-11T02:32:08.354Z,23.57
2022-08-11T02:34:19.189Z,23.51
2022-08-11T02:36:56.669Z,23.58
2022-08-11T02:39:30.169Z,23.61
2022-08-11T02:42:32.840Z,23.51
2022-08-11T02:45:17.236Z,23.60
2022-08-11T02:48:07.002Z,23.55
2022-08-11T02:50:39.248Z,23.53
2022-08-11T02:53:12.653Z,23.53
2022-08-11T02:55:57.872Z,23.49
2022-08-11T02:58:35.542Z,23.41
2022-08-11T03:01:13.296Z,23.36
2022-08-11T03:03:51.694Z,23.36
2022-08-11T03:06:32.905Z,23.35
2022-08-11T03:09:05.916Z,23.33
2022-08-11T03:12:09.551Z,23.37
2022-08-11T03:15:04.110Z,23.36
2022-08-11T03:17:39.161Z,23.22
2022-08-11T03:20:16.490Z,23.31
2022-08-11T03:22:55.762Z,23.34
2022-08-11T03:25:31.607Z,23.36
2022-08-11T03:28:05.651Z,23.22
2022-08-11T03:30:43.420Z,23.25
2022-08-11T03:33:40.352Z,23.26
2022-08-11T03:36:21.317Z,23.24
2022-08-11T03:39:01.137Z,23.30
2022-08-11T03:41:54.726Z,23.30
2022-08-11T03:44:50.272Z,23.28
2022-08-11T03:47:55.878Z,23.26
2022-08-11T03:50:34.681Z,23.34
2022-08-11T03:53:11.683Z,23.27
2022-08-11T03:56:10.230Z,23.30
2022-08-11T03:59:10.564Z,23.19
2022-08-11T04:02:19.080Z,23.25
2022-08-11T04:05:27.090Z,23.23
2022-08-11T04:08:19.807Z,23.15
2022-08-11T04:11:27.565Z,23.09
2022-08-11T04:14:30.919Z,23.16
2022-08-11T04:17:19.581Z,23.26
2022-08-11T04:20:19.829Z,23.35
2022-08-11T04:23:03.383Z,23.40
2022-08-11T04:25:55.894Z,23.21
2022-08-11T04:29:00.981Z,23.04
2022-08-11T04:31:48.857Z,23.07
2022-08-11T04:34:52.703Z,22.88
2022-08-11T04:37:41.734Z,23.07
2022-08-11T04:40:26.178Z,22.85
2022-08-11T04:43:57.168Z,22.80
2022-08-11T04:46:42.508Z,22.72
2022-08-11T04:50:08.240Z,22.26
2022-08-11T04:53:27.606Z,22.36
2022-08-11T04:56:27.061Z,22.15
2022-08-11T04:59:30.660Z,22.29
2022-08-11T05:02:23.871Z,22.38
2022-08-11T05:05:18.347Z,22.19
2022-08-11T05:08:09.157Z,22.04
2022-08-11T05:10:49.606Z,22.23
2022-08-11T05:13:46.116Z,22.29
2022-08-11T05:16:37.324Z,22.34
2022-08-11T05:19:24.022Z,22.47
2022-08-11T05:22:12.373Z,22.47
2022-08-11T05:25:02.397Z,22.21
2022-08-11T05:27:52.800Z,22.29
2022-08-11T05:30:39.174Z,22.02
2022-08-11T05:33:29.721Z,22.21
2022-08-11T05:36:13.353Z,22.28
2022-08-11T05:38:59.115Z,22.18
2022-08-11T05:41:47.434Z,22.04
2022-08-11T05:44:37.202Z,22.11
2022-08-11T05:47:24.101Z,22.04
2022-08-11T05:50:13.595Z,21.95
2022-08-11T05:53:04.352Z,22.07
2022-08-11T05:56:02.629Z,22.19
2022-08-11T05:58:41.384Z,22.26
2022-08-11T06:01:12.036Z,22.06
2022-08-11T06:03:57.561Z,22.20
2022-08-11T06:06:29.286Z,22.29
2022-08-11T06:08:59.257Z,22.27
2022-08-11T06:11:44.403Z,22.25
2022-08-11T06:14:13.912Z,22.30
2022-08-11T06:16:43.212Z,22.21
2022-08-11T06:19:12.052Z,22.29
2022-08-11T06:21:46.125Z,22.27
2022-08-11T06:24:15.877Z,22.20
2022-08-11T06:27:11.117Z,22.25
2022-08-11T06:29:46.960Z,22.33
2022-08-11T06:32:17.173Z,22.36
2022-08-11T06:35:03.075Z,22.43
2022-08-11T06:37:46.699Z,22.44
2022-08-11T06:40:27.389Z,22.55
2022-08-11T06:43:02.192Z,22.60
2022-08-11T06:45:33.824Z,22.64
2022-08-11T06:48:03.157Z,22.70
2022-08-11T06:50:50.360Z,22.69
2022-08-11T06:53:21.066Z,22.71
2022-08-11T06:56:07.873Z,22.73
2022-08-11T06:59:00.424Z,22.76
2022-08-11T07:01:38.160Z,22.84
2022-08-11T07:04:09.472Z,22.89
2022-08-11T07:06:51.217Z,22.92
2022-08-11T07:09:51.183Z,22.92
2022-08-11T07:13:07.621Z,22.93
2022-08-11T07:16:10.924Z,22.93
2022-08-11T07:19:03.561Z,22.97
2022-08-11T07:22:01.102Z,23.00
2022-08-11T07:24:59.239Z,23.04
2022-08-11T07:27:54.794Z,23.08
2022-08-11T07:30:23.602Z,23.10
2022-08-11T07:32:54.093Z,23.10
2022-08-11T07:35:26.101Z,23.17
2022-08-11T07:38:02.265Z,23.21
2022-08-11T07:40:34.146Z,23.24
2022-08-11T07:43:02.800Z,23.26
2022-08-11T07:45:49.156Z,23.28
2022-08-11T07:48:37.145Z,23.30
2022-08-11T07:51:23.595Z,23.32
2022-08-11T07:53:58.288Z,23.36
2022-08-11T07:56:55.070Z,23.31
2022-08-11T08:00:04.189Z,23.43
2022-08-11T08:03:01.494Z,23.42
2022-08-11T08:05:47.654Z,23.42
2022-08-11T08:08:34.638Z,23.48
2022-08-11T08:11:27.154Z,23.56
2022-08-11T08:14:15.561Z,23.56
2022-08-11T08:17:01.891Z,23.62
2022-08-11T08:19:31.622Z,23.69
2022-08-11T08:22:06.065Z,23.62
2022-08-11T08:24:50.166Z,23.69
2022-08-11T08:27:19.024Z,23.78
2022-08-11T08:30:06.798Z,23.81
2022-08-11T08:32:36.082Z,23.89
2022-08-11T08:35:06.007Z,23.84
2022-08-11T08:37:46.966Z,23.88
2022-08-11T08:40:16.210Z,24.00
2022-08-11T08:42:51.691Z,23.99
2022-08-11T08:45:22.447Z,23.98
2022-08-11T08:47:56.166Z,23.98
2022-08-11T08:50:47.825Z,23.98
2022-08-11T08:53:19.286Z,24.07
2022-08-11T08:55:48.005Z,24.10
2022-08-11T08:58:17.047Z,24.15
2022-08-11T09:00:47.564Z,24.24
2022-08-11T09:03:39.897Z,24.16
2022-08-11T09:06:05.295Z,24.22
2022-08-11T09:08:35.180Z,24.21
2022-08-11T09:11:23.496Z,24.28
2022-08-11T09:14:05.160Z,24.52
2022-08-11T09:16:36.698Z,24.75
2022-08-11T09:19:05.354Z,24.51
2022-08-11T09:21:46.272Z,24.70
2022-08-11T09:24:36.612Z,24.84
2022-08-11T09:27:08.965Z,24.68
2022-08-11T09:29:39.275Z,24.81
2022-08-11T09:32:09.198Z,24.70
2022-08-11T09:34:38.595Z,24.77
2022-08-11T09:37:53.643Z,24.70
2022-08-11T09:40:30.204Z,24.95
2022-08-11T09:43:16.979Z,25.08
2022-08-11T09:45:50.550Z,25.21
2022-08-11T09:48:21.212Z,25.17
2022-08-11T09:50:52.490Z,25.04
2022-08-11T09:53:36.611Z,25.29
2022-08-11T09:56:30.895Z,25.21
2022-08-11T09:59:00.184Z,25.29
2022-08-11T10:01:31.692Z,25.44
2022-08-11T10:04:06.951Z,25.34
2022-08-11T10:06:55.467Z,25.51
2022-08-11T10:09:25.805Z,25.35
2022-08-11T10:11:58.803Z,25.48
2022-08-11T10:14:46.649Z,25.72
2022-08-11T10:17:17.318Z,25.75
2022-08-11T10:20:04.108Z,25.69
2022-08-11T10:22:53.085Z,25.76
2022-08-11T10:25:40.032Z,25.91
2022-08-11T10:28:28.915Z,25.83
2022-08-11T10:31:16.544Z,25.83
2022-08-11T10:34:01.596Z,25.90
2022-08-11T10:36:33.730Z,25.94
2022-08-11T10:39:03.985Z,25.95
2022-08-11T10:42:06.861Z,25.94
2022-08-11T10:44:39.916Z,26.00
2022-08-11T10:47:26.893Z,25.76
2022-08-11T10:50:09.686Z,26.01
2022-08-11T10:52:58.214Z,26.05
2022-08-11T10:55:45.306Z,26.06
2022-08-11T10:58:31.760Z,26.25
2022-08-11T11:01:00.880Z,26.38
2022-08-11T11:03:34.581Z,26.56
2022-08-11T11:06:27.759Z,26.67
2022-08-11T11:09:04.967Z,26.59
2022-08-11T11:11:57.461Z,26.54
2022-08-11T11:14:49.895Z,26.64
2022-08-11T11:17:41.148Z,26.65
2022-08-11T11:20:36.301Z,26.54
2022-08-11T11:23:04.393Z,26.70
2022-08-11T11:26:27.126Z,26.64
2022-08-11T11:29:22.455Z,26.74
2022-08-11T11:31:58.529Z,26.78
2022-08-11T11:35:03.157Z,26.83
2022-08-11T11:37:34.519Z,26.98
2022-08-11T11:40:10.304Z,27.17
2022-08-11T11:42:41.613Z,26.91
2022-08-11T11:45:23.271Z,26.93
2022-08-11T11:47:54.303Z,27.15
2022-08-11T11:50:31.740Z,27.13
2022-08-11T11:53:02.396Z,27.23
2022-08-11T11:55:31.250Z,27.07
2022-08-11T11:58:20.464Z,27.40
2022-08-11T12:01:08.961Z,27.38
2022-08-11T12:03:38.413Z,27.30
2022-08-11T12:06:08.567Z,27.44
2022-08-11T12:08:38.261Z,27.45
2022-08-11T12:11:26.292Z,27.27
2022-08-11T12:13:58.441Z,27.22
2022-08-11T12:16:34.970Z,27.35
2022-08-11T12:19:06.912Z,27.65
2022-08-11T12:21:36.920Z,27.49
2022-08-11T12:24:28.502Z,27.39
2022-08-11T12:27:17.814Z,27.37
2022-08-11T12:29:55.053Z,27.62
2022-08-11T12:32:26.092Z,27.69
2022-08-11T12:34:57.193Z,27.66
2022-08-11T12:37:31.132Z,27.53
2022-08-11T12:40:43.227Z,27.61
2022-08-11T12:43:37.986Z,27.74
2022-08-11T12:46:10.104Z,27.86
2022-08-11T12:49:02.784Z,27.77
2022-08-11T12:52:13.815Z,28.04
2022-08-11T12:54:51.578Z,28.01
2022-08-11T12:57:51.281Z,28.14
2022-08-11T13:00:38.267Z,27.85
2022-08-11T13:03:27.261Z,27.91
2022-08-11T13:05:57.487Z,27.92
2022-08-11T13:08:26.893Z,27.66
2022-08-11T13:11:13.932Z,27.72
2022-08-11T13:13:55.459Z,27.92
2022-08-11T13:16:26.737Z,28.07
2022-08-11T13:18:57.389Z,27.92
2022-08-11T13:21:26.069Z,27.85
2022-08-11T13:23:59.448Z,27.84
2022-08-11T13:26:46.888Z,28.05
2022-08-11T13:29:19.987Z,28.18
2022-08-11T13:31:48.863Z,28.29
2022-08-11T13:34:20.261Z,28.41
2022-08-11T13:36:52.346Z,28.37
2022-08-11T13:39:24.162Z,28.65
2022-08-11T13:41:53.878Z,28.45
2022-08-11T13:44:25.768Z,28.39
2022-08-11T13:46:56.290Z,28.40
2022-08-11T13:49:26.304Z,28.59
2022-08-11T13:51:55.485Z,28.65
2022-08-11T13:54:28.131Z,28.72
2022-08-11T13:57:01.058Z,28.84
2022-08-11T13:59:31.424Z,28.73
2022-08-11T14:02:21.995Z,28.71
2022-08-11T14:04:57.828Z,28.82
2022-08-11T14:07:36.800Z,28.75
2022-08-11T14:10:07.447Z,28.87
2022-08-11T14:12:54.961Z,28.92
2022-08-11T14:15:25.557Z,28.87
2022-08-11T14:17:56.503Z,29.03
2022-08-11T14:20:46.712Z,29.05
2022-08-11T14:23:14.686Z,29.01
2022-08-11T14:26:03.740Z,29.02
2022-08-11T14:28:40.220Z,28.90
2022-08-11T14:31:13.568Z,28.96
2022-08-11T14:34:00.723Z,29.23
2022-08-11T14:36:34.169Z,29.02
2022-08-11T14:39:05.115Z,28.85
2022-08-11T14:42:12.665Z,29.04
2022-08-11T14:45:01.253Z,28.95
2022-08-11T14:47:31.842Z,28.79
2022-08-11T14:50:10.370Z,28.74
2022-08-11T14:52:47.007Z,28.69
2022-08-11T14:55:33.727Z,28.78
2022-08-11T14:58:03.054Z,29.06
2022-08-11T15:00:32.467Z,29.07
2022-08-11T15:03:13.537Z,29.31
2022-08-11T15:05:56.177Z,29.09
2022-08-11T15:08:47.930Z,28.98
2022-08-11T15:11:36.526Z,29.13
2022-08-11T15:14:07.148Z,28.92
2022-08-11T15:16:54.055Z,28.94
2022-08-11T15:19:22.573Z,29.23
2022-08-11T15:22:08.784Z,29.04
2022-08-11T15:24:38.988Z,29.22
2022-08-11T15:27:30.757Z,29.33
2022-08-11T15:30:33.508Z,29.43
2022-08-11T15:33:23.491Z,29.04
2022-08-11T15:36:10.536Z,28.94
2022-08-11T15:38:44.163Z,29.09
2022-08-11T15:41:35.721Z,29.17
2022-08-11T15:44:44.627Z,28.92
2022-08-11T15:47:14.852Z,29.08
2022-08-11T15:50:11.666Z,28.99
2022-08-11T15:52:37.869Z,29.18
2022-08-11T15:55:08.607Z,29.00
2022-08-11T15:58:03.242Z,28.87
2022-08-11T16:00:49.286Z,28.76
2022-08-11T16:04:06.195Z,28.91
2022-08-11T16:06:35.225Z,28.98
2022-08-11T16:09:08.420Z,28.91
2022-08-11T16:11:47.571Z,29.10
2022-08-11T16:14:36.477Z,29.15
2022-08-11T16:17:06.453Z,29.00
2022-08-11T16:19:36.459Z,29.00
2022-08-11T16:22:08.409Z,28.99
2022-08-11T16:27:05.194Z,28.92
2022-08-11T16:27:29.097Z,28.92
2022-08-11T16:29:59.242Z,29.00
2022-08-11T16:32:27.819Z,28.93
2022-08-11T16:35:15.702Z,28.74
2022-08-11T16:38:02.922Z,28.86
2022-08-11T16:40:31.972Z,28.88
2022-08-11T16:43:18.816Z,28.83
2022-08-11T16:46:06.824Z,28.85
2022-08-11T16:48:38.768Z,28.83
2022-08-11T16:51:07.789Z,28.78
2022-08-11T16:54:04.008Z,28.77
2022-08-11T16:56:30.686Z,28.70
2022-08-11T16:59:14.502Z,28.57
2022-08-11T17:01:48.669Z,28.54
2022-08-11T17:04:48.447Z,28.50
2022-08-11T17:07:45.336Z,28.45
2022-08-11T17:10:51.156Z,28.45
2022-08-11T17:13:25.409Z,28.43
2022-08-11T17:16:11.780Z,28.39
2022-08-11T17:18:55.779Z,28.37
2022-08-11T17:21:29.832Z,28.25
2022-08-11T17:24:02.767Z,28.21
2022-08-11T17:26:54.651Z,28.20
2022-08-11T17:29:26.970Z,28.20
2022-08-11T17:32:14.216Z,28.17
2022-08-11T17:35:11.674Z,28.16
2022-08-11T17:37:41.322Z,28.03
2022-08-11T17:40:12.304Z,28.00
2022-08-11T17:43:10.627Z,27.95
2022-08-11T17:45:58.545Z,27.86
2022-08-11T17:48:28.560Z,27.84
2022-08-11T17:51:00.805Z,27.84
2022-08-11T17:54:02.131Z,27.70
2022-08-11T17:56:57.791Z,27.62
2022-08-11T17:59:49.024Z,27.50
2022-08-11T18:02:37.217Z,27.42
2022-08-11T18:05:12.304Z,27.41
2022-08-11T18:08:01.855Z,27.39
2022-08-11T18:10:49.947Z,27.35
2022-08-11T18:13:37.768Z,27.26
2022-08-11T18:16:23.975Z,27.18
2022-08-11T18:19:09.982Z,27.15
2022-08-11T18:22:14.400Z,27.05
2022-08-11T18:25:07.601Z,27.04
2022-08-11T18:27:54.856Z,26.98
2022-08-11T18:30:41.716Z,26.92
2022-08-11T18:36:37.678Z,26.89
2022-08-11T18:39:25.639Z,26.77
2022-08-11T18:42:13.286Z,26.69
2022-08-11T18:45:07.106Z,26.62
2022-08-11T18:47:55.450Z,26.54
2022-08-11T18:50:43.770Z,26.48
2022-08-11T18:53:34.833Z,26.41
2022-08-11T18:56:21.400Z,26.39
2022-08-11T18:59:09.571Z,26.31
2022-08-11T19:01:56.536Z,26.26
2022-08-11T19:04:43.009Z,26.16
2022-08-11T19:07:30.315Z,26.13
2022-08-11T19:10:16.736Z,26.20
2022-08-11T19:13:04.677Z,26.08
2022-08-11T19:15:53.930Z,26.05
2022-08-11T19:18:41.346Z,26.01
2022-08-11T19:21:28.203Z,25.94
2022-08-11T19:24:19.197Z,25.85
2022-08-11T19:27:06.129Z,25.76
2022-08-11T19:30:08.070Z,25.68
2022-08-11T19:33:01.228Z,25.71
2022-08-11T19:35:47.778Z,25.71
2022-08-11T19:38:34.310Z,25.67
2022-08-11T19:41:56.969Z,25.46
2022-08-11T19:44:27.137Z,25.53
2022-08-11T19:47:14.017Z,25.50
2022-08-11T19:50:02.829Z,25.45
2022-08-11T19:52:49.706Z,25.46
2022-08-11T19:55:36.638Z,25.35
2022-08-11T19:58:26.519Z,25.28
2022-08-11T20:01:12.596Z,25.28
2022-08-11T20:03:58.420Z,25.26
2022-08-11T20:06:46.091Z,25.19
2022-08-11T20:10:05.518Z,25.12
2022-08-11T20:12:38.894Z,25.11
2022-08-11T20:15:26.554Z,25.00
2022-08-11T20:18:13.010Z,25.03
2022-08-11T20:20:58.975Z,25.05
2022-08-11T20:23:46.627Z,24.94
2022-08-11T20:26:33.110Z,24.76
2022-08-11T20:29:19.608Z,24.73
2022-08-11T20:32:06.629Z,24.94
2022-08-11T20:34:57.190Z,24.80
2022-08-11T20:37:45.058Z,24.61
2022-08-11T20:40:36.071Z,24.75
2022-08-11T20:44:06.001Z,24.62
2022-08-11T20:46:28.245Z,24.65
2022-08-11T20:49:15.606Z,24.53
2022-08-11T20:52:01.585Z,24.54
2022-08-11T20:54:53.597Z,24.42
2022-08-11T20:58:03.768Z,24.37
2022-08-11T21:00:49.369Z,24.26
2022-08-11T21:03:45.336Z,24.36
2022-08-11T21:06:43.044Z,24.21
2022-08-11T21:12:36.704Z,23.97
2022-08-11T21:15:47.533Z,24.00
2022-08-11T21:18:33.440Z,23.93
2022-08-11T21:21:24.640Z,24.00
2022-08-11T21:24:21.522Z,23.90
2022-08-11T21:27:09.840Z,23.84
2022-08-11T21:30:03.266Z,24.02
2022-08-11T21:32:51.002Z,23.93
2022-08-11T21:35:37.797Z,23.74
2022-08-11T21:38:31.756Z,23.80
2022-08-11T21:41:19.212Z,23.74
2022-08-11T21:44:06.283Z,23.52
2022-08-11T21:46:55.699Z,23.78
2022-08-11T21:49:44.908Z,23.76
2022-08-11T21:52:31.187Z,23.59
2022-08-11T21:55:18.117Z,23.72
2022-08-11T21:58:04.543Z,23.65
2022-08-11T22:00:51.007Z,23.60
2022-08-11T22:03:49.901Z,23.80
2022-08-11T22:06:38.967Z,23.77
2022-08-11T22:09:24.907Z,23.63
2022-08-11T22:12:34.644Z,23.62
2022-08-11T22:15:17.462Z,23.46
2022-08-11T22:18:03.359Z,23.37
2022-08-11T22:20:50.654Z,23.37
2022-08-11T22:23:38.436Z,23.58
2022-08-11T22:26:24.429Z,23.43
2022-08-11T22:29:11.209Z,23.31
2022-08-11T22:31:58.139Z,23.32
2022-08-11T22:34:52.857Z,23.54
2022-08-11T22:37:40.609Z,23.47
2022-08-11T22:40:29.291Z,23.40
2022-08-11T22:43:15.427Z,23.46
2022-08-11T22:46:02.881Z,23.53
2022-08-11T22:48:49.759Z,23.61
2022-08-11T22:51:36.737Z,23.29
2022-08-11T22:54:23.325Z,23.18
2022-08-11T22:57:11.499Z,23.19
2022-08-11T22:59:58.792Z,23.06
2022-08-11T23:02:46.016Z,23.08
2022-08-11T23:05:33.475Z,23.06
2022-08-11T23:08:19.805Z,23.23
2022-08-11T23:11:06.720Z,23.06
2022-08-11T23:13:54.518Z,23.06
2022-08-11T23:16:40.879Z,22.86
2022-08-11T23:20:07.294Z,22.85
2022-08-11T23:22:49.246Z,22.81
2022-08-11T23:25:36.595Z,23.06
2022-08-11T23:28:23.333Z,22.73
2022-08-11T23:31:12.761Z,22.79
2022-08-11T23:33:59.199Z,22.55
2022-08-11T23:36:47.103Z,22.80
2022-08-11T23:39:35.183Z,22.57
2022-08-11T23:42:21.546Z,22.67
2022-08-11T23:45:09.502Z,22.54
2022-08-11T23:47:57.627Z,22.74
2022-08-11T23:50:43.907Z,22.70
2022-08-11T23:53:30.867Z,22.55
2022-08-11T23:56:17.434Z,22.63
2022-08-11T23:59:08.794Z,22.68
